Time;durP1;ratioP1;P1;durP2;ratioP2;P2;SDS_P1;SDS_P2;PMS_P1;PMS_P2;Temp;Humidity;BMP_temperature;BMP_pressure;BME280_temperature;BME280_humidity;BME280_pressure;Samples;Min_cycle;Max_cycle;Signal;HPM_P1;HPM_P2
2024/02/21 00:00:45;;;;;;;25.30;14.70;;;;;;;5.91;74.91;100165.50;4922163;29;20122;-96
2024/02/21 00:03:13;;;;;;;31.00;15.60;;;;;;;5.86;74.85;100158.16;4905555;29;20142;-96
2024/02/21 00:05:47;;;;;;;25.27;14.77;;;;;;;5.74;75.45;100151.88;4937009;29;20475;-96
2024/02/21 00:08:16;;;;;;;28.77;14.73;;;;;;;5.77;75.59;100146.91;4905916;29;20031;-96
2024/02/21 00:10:44;;;;;;;22.88;14.30;;;;;;;5.82;74.53;100149.75;4937362;29;20031;-96
2024/02/21 00:13:11;;;;;;;25.15;14.40;;;;;;;5.82;74.37;100147.06;4922355;29;20040;-96
2024/02/21 00:15:38;;;;;;;26.48;13.57;;;;;;;5.83;74.48;100154.06;4905725;29;20028;-96
2024/02/21 00:18:06;;;;;;;24.65;14.38;;;;;;;5.78;74.34;100135.19;4905544;29;20494;-95
2024/02/21 00:20:32;;;;;;;28.15;15.55;;;;;;;5.83;74.43;100148.72;4905331;29;20574;-96
2024/02/21 00:22:58;;;;;;;26.45;15.25;;;;;;;5.73;74.52;100140.38;4921247;29;20023;-96
2024/02/21 00:25:25;;;;;;;24.02;13.82;;;;;;;5.76;74.63;100145.28;4920777;29;20027;-96
2024/02/21 00:27:50;;;;;;;22.05;13.90;;;;;;;5.73;75.04;100129.69;4938667;29;20027;-96
2024/02/21 00:30:16;;;;;;;28.88;14.70;;;;;;;5.67;74.81;100135.91;4909466;29;20035;-96
2024/02/21 00:32:45;;;;;;;24.85;13.48;;;;;;;5.64;74.34;100118.47;4925414;29;20406;-96
2024/02/21 00:35:13;;;;;;;22.77;13.35;;;;;;;5.88;75.34;100153.41;4922720;29;20091;-96
2024/02/21 00:37:41;;;;;;;21.15;13.10;;;;;;;5.88;75.17;100156.88;4924027;29;20028;-96
2024/02/21 00:40:11;;;;;;;23.60;13.32;;;;;;;5.74;75.06;100133.97;4924744;29;20024;-96
2024/02/21 00:42:38;;;;;;;23.70;13.32;;;;;;;5.71;74.38;100126.41;4941488;29;20027;-96
2024/02/21 00:45:10;;;;;;;22.63;13.15;;;;;;;5.64;75.55;100137.16;4964327;28;20510;-96
2024/02/21 00:47:39;;;;;;;24.33;13.38;;;;;;;5.56;75.09;100121.41;4933771;28;20063;-96
2024/02/21 00:50:07;;;;;;;26.48;14.18;;;;;;;5.57;75.30;100135.56;4931593;29;20118;-96
2024/02/21 00:52:34;;;;;;;23.23;13.45;;;;;;;5.54;75.93;100135.97;4931261;29;20035;-96
2024/02/21 00:55:00;;;;;;;23.08;14.05;;;;;;;5.39;76.50;100123.75;4962943;29;20469;-96
2024/02/21 00:57:29;;;;;;;23.65;14.70;;;;;;;5.49;75.91;100150.00;4915793;29;20031;-96
2024/02/21 00:59:58;;;;;;;25.40;14.68;;;;;;;5.28;76.09;100119.09;4915417;29;20037;-96
2024/02/21 01:02:23;;;;;;;25.02;14.30;;;;;;;5.28;76.41;100116.44;4931421;29;20027;-96
2024/02/21 01:04:51;;;;;;;23.88;13.45;;;;;;;5.51;76.13;100145.25;4930082;29;20047;-96
2024/02/21 01:07:17;;;;;;;24.75;15.18;;;;;;;5.47;75.59;100122.69;4931212;29;20046;-96
2024/02/21 01:09:43;;;;;;;23.52;13.25;;;;;;;5.31;76.53;100118.66;4915401;29;20095;-96
2024/02/21 01:12:09;;;;;;;27.05;16.10;;;;;;;5.31;76.80;100113.31;4930265;29;20028;-96
2024/02/21 01:14:37;;;;;;;26.13;14.98;;;;;;;5.51;75.74;100145.25;4933849;28;20026;-96
2024/02/21 01:17:05;;;;;;;24.95;14.55;;;;;;;5.59;75.78;100131.63;4934288;28;20054;-96
2024/02/21 01:19:32;;;;;;;27.65;16.00;;;;;;;5.41;76.25;100119.00;4934609;28;20054;-96
2024/02/21 01:22:00;;;;;;;24.73;14.70;;;;;;;5.46;75.67;100121.06;4948435;28;20055;-96
2024/02/21 01:24:27;;;;;;;22.60;14.00;;;;;;;5.47;75.62;100117.34;4949830;28;20026;-96
2024/02/21 01:26:55;;;;;;;28.10;14.05;;;;;;;5.45;75.71;100130.91;4965637;28;20105;-96
2024/02/21 01:29:21;;;;;;;25.52;14.75;;;;;;;5.45;76.20;100130.91;4950197;28;20027;-96
2024/02/21 01:31:47;;;;;;;21.33;13.30;;;;;;;5.40;75.76;100106.72;4934073;28;20086;-96
2024/02/21 01:34:13;;;;;;;26.35;14.85;;;;;;;5.53;75.49;100116.47;4948578;28;20094;-96
2024/02/21 01:36:42;;;;;;;22.73;14.45;;;;;;;5.47;75.88;100112.81;4933975;28;20030;-96
2024/02/21 01:39:10;;;;;;;24.17;14.43;;;;;;;5.41;76.11;100112.84;4934790;28;20027;-96
2024/02/21 01:41:36;;;;;;;28.10;14.82;;;;;;;5.36;75.61;100110.03;4934327;28;20055;-96
2024/02/21 01:44:02;;;;;;;24.10;13.85;;;;;;;5.33;75.20;100102.44;4948944;28;20062;-96
2024/02/21 01:46:30;;;;;;;24.27;14.27;;;;;;;5.25;75.60;100096.34;4933716;28;20114;-96
2024/02/21 01:48:56;;;;;;;28.88;13.75;;;;;;;5.22;76.30;100117.28;4934801;28;20038;-96
2024/02/21 01:51:24;;;;;;;27.67;14.32;;;;;;;5.17;76.97;100114.47;4950711;28;20003;-96
2024/02/21 01:53:50;;;;;;;23.50;14.73;;;;;;;5.14;76.30;100106.88;4964055;28;20446;-96
2024/02/21 01:56:17;;;;;;;22.13;14.07;;;;;;;5.14;75.85;100123.69;4932741;28;20045;-96
2024/02/21 01:58:43;;;;;;;22.90;13.20;;;;;;;5.12;76.13;100115.09;4939908;28;20031;-96
2024/02/21 02:01:10;;;;;;;22.50;14.05;;;;;;;5.07;77.12;100115.72;4952933;28;20037;-95
2024/02/21 02:03:36;;;;;;;24.92;14.13;;;;;;;5.00;77.14;100117.63;4954405;28;20033;-96
2024/02/21 02:06:07;;;;;;;24.35;13.93;;;;;;;4.69;77.33;100082.88;4954573;28;20121;-95
2024/02/21 02:08:32;;;;;;;26.15;14.93;;;;;;;4.70;76.64;100095.19;4946465;28;20070;-96
2024/02/21 02:10:58;;;;;;;27.17;14.52;;;;;;;4.89;77.69;100110.28;4945808;28;20402;-95
2024/02/21 02:13:24;;;;;;;23.17;14.25;;;;;;;4.84;77.10;100091.44;4930083;28;20034;-96
2024/02/21 02:15:50;;;;;;;22.95;13.30;;;;;;;4.92;77.06;100088.53;4929975;28;20034;-96
2024/02/21 02:18:19;;;;;;;26.48;13.07;;;;;;;5.00;77.10;100093.63;4946487;28;20031;-96
2024/02/21 02:20:45;;;;;;;21.67;13.13;;;;;;;5.11;76.60;100102.78;4945768;28;20090;-96
2024/02/21 02:23:20;;;;;;;22.67;13.63;;;;;;;4.85;77.53;100090.41;4946761;28;20035;-96
2024/02/21 02:25:49;;;;;;;25.23;12.98;;;;;;;4.85;77.41;100101.06;4961675;28;20023;-95
2024/02/21 02:28:14;;;;;;;20.05;12.35;;;;;;;4.92;77.47;100098.34;4929895;28;20046;-96
2024/02/21 02:30:40;;;;;;;22.98;13.25;;;;;;;4.95;76.74;100103.28;4945785;28;20058;-96
2024/02/21 02:33:06;;;;;;;22.05;13.27;;;;;;;4.93;77.35;100098.16;4929115;28;20425;-96
2024/02/21 02:35:33;;;;;;;20.75;12.15;;;;;;;4.86;77.15;100092.84;4945092;28;20034;-96
2024/02/21 02:37:59;;;;;;;23.08;13.27;;;;;;;4.82;77.49;100099.66;4944211;28;20030;-96
2024/02/21 02:40:25;;;;;;;22.30;12.35;;;;;;;4.92;77.41;100103.69;4977182;28;20073;-96
2024/02/21 02:42:55;;;;;;;24.27;12.38;;;;;;;4.93;76.84;100103.50;4945497;28;20396;-96
2024/02/21 02:45:22;;;;;;;27.67;13.38;;;;;;;5.12;76.48;100106.25;4930251;28;20034;-95
2024/02/21 02:47:47;;;;;;;25.75;12.48;;;;;;;4.98;76.64;100101.03;4928798;28;20152;-96
2024/02/21 02:50:13;;;;;;;25.48;12.98;;;;;;;4.91;76.77;100092.22;4944471;28;20034;-96
2024/02/21 02:52:41;;;;;;;19.90;12.27;;;;;;;4.92;77.11;100104.53;4928969;28;20027;-96
2024/02/21 02:55:07;;;;;;;24.02;12.88;;;;;;;4.99;76.45;100102.63;4944824;28;20026;-95
2024/02/21 02:57:33;;;;;;;20.08;13.10;;;;;;;4.85;77.30;100093.06;4929264;28;20037;-96
2024/02/21 02:59:58;;;;;;;19.77;12.55;;;;;;;4.86;77.62;100098.19;4944663;28;20030;-96
2024/02/21 03:02:24;;;;;;;20.60;12.88;;;;;;;4.88;76.90;100108.66;4929788;28;20023;-96
2024/02/21 03:04:50;;;;;;;24.85;12.73;;;;;;;4.92;77.70;100114.38;4944745;28;20061;-96
2024/02/21 03:07:15;;;;;;;18.33;11.35;;;;;;;4.82;77.66;100106.84;4929269;28;20026;-96
2024/02/21 03:09:46;;;;;;;19.25;12.43;;;;;;;4.81;77.33;100106.00;4928875;28;20027;-96
2024/02/21 03:12:24;;;;;;;22.42;13.73;;;;;;;4.80;77.40;100092.91;4946302;28;20030;-96
2024/02/21 03:14:50;;;;;;;21.88;13.10;;;;;;;4.92;76.00;100099.19;4946485;28;20085;-96
2024/02/21 03:17:15;;;;;;;22.63;12.82;;;;;;;4.98;76.09;100102.84;4929330;28;20026;-96
2024/02/21 03:19:41;;;;;;;26.90;13.48;;;;;;;5.07;76.75;100117.59;4944402;28;20049;-95
2024/02/21 03:22:07;;;;;;;24.75;13.60;;;;;;;5.05;76.68;100107.13;4944536;28;20026;-96
2024/02/21 03:24:33;;;;;;;23.42;13.38;;;;;;;5.00;77.35;100108.78;4944512;28;20497;-95
2024/02/21 03:26:58;;;;;;;22.90;12.57;;;;;;;5.03;77.37;100111.03;4944199;28;20030;-96
2024/02/21 03:29:25;;;;;;;24.13;13.60;;;;;;;5.03;77.52;100117.19;4928784;28;20189;-96
2024/02/21 03:31:51;;;;;;;24.85;14.15;;;;;;;4.98;76.97;100103.69;4960231;28;20050;-96
2024/02/21 03:34:16;;;;;;;21.95;13.32;;;;;;;5.03;77.07;100117.19;4944062;28;20486;-96
2024/02/21 03:36:43;;;;;;;21.60;12.95;;;;;;;5.01;76.50;100108.59;4945046;28;20022;-95
2024/02/21 03:39:10;;;;;;;24.30;13.50;;;;;;;5.02;76.56;100099.56;4944361;28;20504;-96
2024/02/21 03:41:36;;;;;;;24.05;13.85;;;;;;;5.18;76.59;100103.56;4944700;28;20015;-96
2024/02/21 03:44:03;;;;;;;26.48;13.77;;;;;;;5.18;75.69;100100.06;4944424;28;20023;-96
2024/02/21 03:46:29;;;;;;;21.67;13.43;;;;;;;5.23;75.93;100114.41;4927878;28;20481;-96
2024/02/21 03:48:54;;;;;;;21.83;12.70;;;;;;;5.29;76.13;100126.06;4929446;28;20034;-96
2024/02/21 03:51:21;;;;;;;21.48;12.65;;;;;;;5.08;76.56;100089.84;4944688;28;20038;-96
2024/02/21 03:53:49;;;;;;;21.25;13.02;;;;;;;5.23;76.09;100103.75;4944239;28;20065;-96
2024/02/21 03:56:15;;;;;;;19.40;13.35;;;;;;;5.23;75.93;100094.91;4929092;28;20401;-96
2024/02/21 03:58:42;;;;;;;21.65;13.45;;;;;;;5.20;76.50;100098.00;4945113;28;20035;-96
2024/02/21 04:01:08;;;;;;;24.48;12.75;;;;;;;5.24;76.29;100107.22;4929091;28;20500;-96
2024/02/21 04:03:34;;;;;;;22.45;14.07;;;;;;;5.36;76.34;100116.19;4929615;28;20023;-96
2024/02/21 04:06:00;;;;;;;24.00;13.45;;;;;;;5.23;76.60;100098.41;4944096;28;20122;-96
2024/02/21 04:08:26;;;;;;;27.55;14.13;;;;;;;5.24;77.11;100110.69;4944922;28;20062;-96
2024/02/21 04:10:51;;;;;;;27.33;14.02;;;;;;;5.11;76.52;100089.44;4943225;28;20489;-95
2024/02/21 04:13:17;;;;;;;25.35;14.30;;;;;;;4.99;77.23;100097.31;4943707;28;20490;-96
2024/02/21 04:15:44;;;;;;;22.77;12.70;;;;;;;4.98;76.93;100114.38;4944815;28;20022;-96
2024/02/21 04:18:12;;;;;;;29.33;14.70;;;;;;;4.97;76.81;100125.25;4932908;28;20169;-96
2024/02/21 04:20:40;;;;;;;32.42;15.75;;;;;;;4.85;76.21;100099.22;4947266;28;20026;-96
2024/02/21 04:23:06;;;;;;;29.80;15.77;;;;;;;4.98;76.07;100110.84;4948611;28;20058;-96
2024/02/21 04:25:32;;;;;;;34.67;16.75;;;;;;;4.91;76.61;100102.06;4963284;28;20027;-96
2024/02/21 04:27:58;;;;;;;23.52;14.80;;;;;;;4.98;76.48;100105.50;4963159;28;20035;-96
2024/02/21 04:30:24;;;;;;;23.85;14.38;;;;;;;5.09;76.40;100106.72;4947224;28;20034;-96
2024/02/21 04:32:50;;;;;;;26.83;14.90;;;;;;;5.10;76.86;100119.81;4979799;28;20026;-96
2024/02/21 04:35:16;;;;;;;24.88;14.77;;;;;;;5.12;76.48;100116.94;4971126;28;20403;-96
2024/02/21 04:37:42;;;;;;;31.38;15.48;;;;;;;5.09;76.95;100109.38;4931748;28;20097;-96
2024/02/21 04:40:27;;;;;;;27.50;15.18;;;;;;;4.94;76.18;100101.63;4948377;29;20035;-96
2024/02/21 04:42:53;;;;;;;24.92;14.55;;;;;;;4.84;76.46;100107.44;4943997;29;20028;-95
2024/02/21 04:45:18;;;;;;;28.52;14.93;;;;;;;4.85;76.17;100106.41;4927284;29;20065;-94
2024/02/21 04:47:46;;;;;;;26.17;15.45;;;;;;;4.79;76.71;100099.25;4939219;28;20027;-96
2024/02/21 04:50:13;;;;;;;28.70;15.90;;;;;;;4.94;76.82;100123.81;4948971;28;20430;-96
2024/02/21 04:52:38;;;;;;;27.85;16.98;;;;;;;4.79;76.51;100099.25;4967401;28;20049;-95
2024/02/21 04:55:07;;;;;;;28.83;15.65;;;;;;;4.75;75.84;100098.03;4949806;28;20055;-95
2024/02/21 04:57:33;;;;;;;25.95;15.05;;;;;;;4.71;76.69;100118.16;4969216;28;20062;-94
2024/02/21 04:59:59;;;;;;;27.98;14.60;;;;;;;4.77;76.76;100136.84;4951451;28;20049;-96
2024/02/21 05:02:26;;;;;;;31.73;17.17;;;;;;;4.64;76.65;100123.53;4948060;28;20031;-95
2024/02/21 05:04:53;;;;;;;31.00;16.90;;;;;;;4.43;76.86;100114.78;4952492;28;20031;-95
2024/02/21 05:07:22;;;;;;;28.50;16.30;;;;;;;4.40;77.39;100123.19;4961529;28;20034;-96
2024/02/21 05:09:49;;;;;;;29.17;16.77;;;;;;;4.26;78.08;100110.94;4975247;28;20070;-95
2024/02/21 05:12:22;;;;;;;26.02;14.70;;;;;;;4.45;77.07;100139.38;4954849;28;20046;-96
2024/02/21 05:14:48;;;;;;;26.98;16.20;;;;;;;4.48;77.44;100151.47;4953720;28;20050;-96
2024/02/21 05:17:15;;;;;;;28.10;16.42;;;;;;;4.38;77.50;100146.59;4945411;28;20492;-96
2024/02/21 05:19:40;;;;;;;38.88;21.52;;;;;;;4.29;77.21;100126.50;4930844;28;20031;-96
2024/02/21 05:22:08;;;;;;;34.00;17.33;;;;;;;4.18;77.49;100125.28;4947401;28;20120;-96
2024/02/21 05:24:39;;;;;;;29.75;16.80;;;;;;;4.35;76.58;100138.19;4963944;28;20027;-96
2024/02/21 05:27:08;;;;;;;26.10;15.00;;;;;;;4.34;77.29;100131.22;4946397;29;20525;-96
2024/02/21 05:29:34;;;;;;;32.70;16.77;;;;;;;4.43;77.15;100138.75;4948543;28;20057;-95
2024/02/21 05:32:05;;;;;;;33.53;18.67;;;;;;;4.61;76.90;100162.13;4962116;28;20130;-96
2024/02/21 05:34:31;;;;;;;35.63;16.55;;;;;;;4.49;77.44;100141.63;4945952;29;20059;-96
2024/02/21 05:37:12;;;;;;;34.55;18.70;;;;;;;4.67;76.74;100157.78;4954348;28;20073;-96
2024/02/21 05:39:41;;;;;;;36.83;20.70;;;;;;;4.50;77.70;100145.94;4966233;28;20043;-95
2024/02/21 05:42:10;;;;;;;38.35;19.50;;;;;;;4.52;77.56;100158.03;4952993;28;20101;-95
2024/02/21 05:44:37;;;;;;;32.08;16.35;;;;;;;4.57;77.61;100144.91;4981580;28;20030;-96
2024/02/21 05:47:31;;;;;;;29.35;16.23;;;;;;;4.68;76.66;100155.94;4974020;28;20101;-96
2024/02/21 05:50:13;;;;;;;27.95;16.67;;;;;;;4.74;76.67;100150.56;4959776;28;20042;-96
2024/02/21 05:52:43;;;;;;;27.52;16.40;;;;;;;4.83;76.69;100169.84;4958531;28;20045;-96
2024/02/21 05:55:15;;;;;;;29.50;16.25;;;;;;;4.84;76.14;100158.97;4953886;29;20054;-96
2024/02/21 06:32:32;;;;;;;48.25;27.60;;;;;;;6.54;72.16;100192.13;4954810;28;20048;-96
2024/02/21 06:35:01;;;;;;;40.78;20.20;;;;;;;6.24;72.82;100179.44;4988521;23;20041;-93
2024/02/21 06:37:31;;;;;;;38.45;20.50;;;;;;;6.45;72.80;100215.69;4982652;23;20131;-95
2024/02/21 06:40:39;;;;;;;37.97;18.20;;;;;;;6.46;71.75;100179.03;4951903;29;20035;-96
2024/02/21 06:46:24;;;;;;;27.75;14.77;;;;;;;6.86;71.19;100194.66;4985846;28;20066;-96
2024/02/21 06:48:58;;;;;;;48.55;26.90;;;;;;;6.95;71.38;100187.97;4973228;28;20042;-96
2024/02/21 06:51:30;;;;;;;27.75;16.75;;;;;;;7.00;71.70;100171.22;4933992;28;20050;-95
2024/02/21 07:05:16;;;;;;;23.48;14.50;;;;;;;7.26;70.62;100183.44;5091284;23;20051;-95
2024/02/21 07:08:03;;;;;;;32.75;15.65;;;;;;;7.28;70.02;100174.16;4936579;29;20073;-96
2024/02/21 07:10:42;;;;;;;22.00;13.90;;;;;;;7.44;70.00;100174.56;4951987;28;20055;-96
2024/02/21 07:13:17;;;;;;;22.85;13.20;;;;;;;7.62;69.40;100197.81;4965944;28;20043;-96
2024/02/21 07:16:32;;;;;;;;;;;;;;;;;;;;;
2024/02/21 07:19:00;;;;;;;27.58;14.13;;;;;;;7.68;69.12;100180.81;4933600;28;20106;-96
2024/02/21 07:21:32;;;;;;;24.42;14.65;;;;;;;7.73;68.66;100180.94;4934232;28;20034;-92
2024/02/21 07:24:03;;;;;;;29.55;15.50;;;;;;;7.72;69.17;100173.09;4932755;28;20030;-93
2024/02/21 07:27:15;;;;;;;21.63;14.05;;;;;;;8.09;68.09;100187.16;4936955;29;20108;-96
2024/02/21 07:29:49;;;;;;;24.30;13.98;;;;;;;8.08;67.34;100172.94;4923300;29;20552;-96
2024/02/21 07:32:16;;;;;;;25.02;14.52;;;;;;;8.29;66.96;100193.00;4953452;29;20043;-96
2024/02/21 07:46:11;;;;;;;27.02;14.38;;;;;;;8.74;65.38;100180.88;4947734;29;20039;-96
2024/02/21 07:52:07;;;;;;;24.33;15.18;;;;;;;9.03;64.33;100167.50;5088959;23;20051;-94
2024/02/21 07:54:58;;;;;;;31.90;19.25;;;;;;;9.29;63.17;100168.78;4997141;23;20569;-96
2024/02/21 08:15:15;;;;;;;;;;;;;;;;;;;;;
2024/02/21 08:17:47;;;;;;;28.15;14.80;;;;;;;10.07;61.06;100169.88;4953261;28;20114;-95
2024/02/21 08:31:52;;;;;;;19.92;13.27;;;;;;;10.19;60.72;100161.72;4947920;28;20051;-93
2024/02/21 08:34:20;;;;;;;20.85;12.90;;;;;;;10.62;59.83;100197.06;4931578;28;20034;-95
2024/02/21 08:37:10;;;;;;;24.52;14.95;;;;;;;10.58;58.27;100161.75;4949409;29;20035;-96
2024/02/21 08:46:20;;;;;;;27.50;13.88;;;;;;;10.72;58.87;100154.94;5081236;23;19906;-94
2024/02/21 08:58:39;;;;;;;23.80;11.75;;;;;;;10.99;57.05;100143.41;5480275;23;20051;-91
2024/02/21 09:01:37;;;;;;;;;;;;;;;;;;;;;
2024/02/21 09:05:18;;;;;;;13.95;9.88;;;;;;;11.13;54.69;100133.84;4972516;28;20090;-96
2024/02/21 09:07:59;;;;;;;11.73;7.57;;;;;;;11.42;53.72;100159.75;4916267;29;20047;-96
2024/02/21 09:13:28;;;;;;;12.60;8.52;;;;;;;11.45;52.99;100149.25;5443149;23;20120;-96
2024/02/21 09:34:46;;;;;;;13.20;7.30;;;;;;;12.43;50.57;100139.25;5442216;23;20070;-95
2024/02/21 09:40:40;;;;;;;18.70;8.32;;;;;;;12.68;49.93;100122.38;4935566;29;20095;-96
2024/02/21 09:43:08;;;;;;;11.18;8.60;;;;;;;12.86;49.02;100129.19;4945010;28;20030;-95
2024/02/21 10:03:14;;;;;;;11.07;7.75;;;;;;;14.42;45.47;100127.94;3247178;23;20307;-90
2024/02/21 10:05:50;;;;;;;11.13;6.30;;;;;;;14.38;43.79;100118.75;4923889;29;20047;-94
2024/02/21 10:08:16;;;;;;;13.80;7.95;;;;;;;13.71;46.32;100124.22;4926631;29;20063;-96
2024/02/21 10:39:59;;;;;;;;;;;;;;;;;;;;;
2024/02/21 10:42:57;;;;;;;11.95;7.72;;;;;;;12.65;48.86;100082.34;4989791;28;20074;-96
2024/02/21 10:46:07;;;;;;;;;;;;;;;;;;;;;
2024/02/21 10:48:53;;;;;;;15.73;8.05;;;;;;;12.99;48.33;100069.22;4931824;29;20122;-95
2024/02/21 10:51:39;;;;;;;11.30;7.72;;;;;;;12.99;47.76;100047.59;4919062;29;20103;-96
2024/02/21 11:03:58;;;;;;;10.90;7.80;;;;;;;12.70;47.76;100036.44;5026606;23;20078;-96
2024/02/21 11:07:01;;;;;;;12.82;7.75;;;;;;;12.72;48.38;100058.59;4935102;29;20055;-96
2024/02/21 11:09:52;;;;;;;12.52;7.60;;;;;;;12.36;49.27;100041.44;4937878;29;20058;-96
2024/02/21 11:32:14;;;;;;;11.05;8.00;;;;;;;13.72;46.57;100011.38;4899165;29;20052;-95
2024/02/21 11:34:42;;;;;;;15.80;8.73;;;;;;;13.78;46.98;100013.00;4875203;29;20033;-94
2024/02/21 11:37:18;;;;;;;14.02;8.38;;;;;;;14.00;45.42;100011.84;4884900;29;20050;-94
2024/02/21 11:40:10;;;;;;;11.90;8.77;;;;;;;13.73;45.39;100005.66;4899111;29;20570;-96
2024/02/21 11:42:52;;;;;;;15.38;8.65;;;;;;;13.86;45.50;99998.06;4892092;29;20411;-96
2024/02/21 11:45:21;;;;;;;14.45;9.50;;;;;;;13.59;47.01;99982.16;4897029;29;20136;-96
2024/02/21 11:47:54;;;;;;;21.10;12.20;;;;;;;13.71;46.42;100002.44;4911212;29;20040;-95
2024/02/21 11:50:24;;;;;;;19.63;11.45;;;;;;;14.00;46.17;100014.56;4886615;29;20024;-96
2024/02/21 11:52:50;;;;;;;23.80;9.95;;;;;;;13.86;47.03;100001.59;4884447;29;20032;-96
2024/02/21 11:55:19;;;;;;;11.63;7.95;;;;;;;13.87;45.65;99992.38;4915629;29;20035;-96
2024/02/21 11:57:55;;;;;;;23.08;10.00;;;;;;;13.90;46.50;99993.72;4901429;29;20043;-96
2024/02/21 12:00:27;;;;;;;14.32;8.95;;;;;;;13.99;46.29;100007.53;4889534;29;20029;-96
2024/02/21 12:03:01;;;;;;;12.00;7.93;;;;;;;13.77;44.81;99986.19;4905468;29;20073;-94
2024/02/21 12:05:35;;;;;;;11.45;6.43;;;;;;;14.08;43.14;100003.16;4897604;29;20040;-96
2024/02/21 12:08:08;;;;;;;12.48;5.43;;;;;;;14.17;41.54;99992.56;4894975;29;20216;-95
2024/02/21 12:10:35;;;;;;;10.02;5.97;;;;;;;14.21;41.33;99983.59;4881992;29;20499;-93
2024/02/21 12:13:10;;;;;;;10.02;5.70;;;;;;;14.28;40.89;99973.28;4881384;29;20025;-95
2024/02/21 12:15:47;;;;;;;14.38;5.72;;;;;;;14.54;41.02;99983.97;4876897;29;20440;-96
2024/02/21 12:18:17;;;;;;;11.65;5.80;;;;;;;14.54;40.75;99970.44;4884190;29;20039;-96
2024/02/21 12:20:50;;;;;;;9.02;5.63;;;;;;;14.61;40.03;99978.28;4888361;29;20045;-96
2024/02/21 12:23:31;;;;;;;9.35;6.10;;;;;;;14.45;40.79;99956.66;4889093;29;20395;-96
2024/02/21 12:26:39;;;;;;;16.00;6.57;;;;;;;14.63;41.48;99976.09;4887289;29;20037;-96
2024/02/21 12:29:17;;;;;;;10.85;6.40;;;;;;;14.60;41.07;99966.63;4892760;29;20048;-96
2024/02/21 12:57:31;;;;;;;11.45;7.50;;;;;;;14.51;42.98;99947.44;4953889;29;20071;-95
2024/02/21 13:11:20;;;;;;;10.52;5.70;;;;;;;14.35;40.96;99927.72;5204690;23;20051;-94
2024/02/21 13:16:48;;;;;;;10.30;5.25;;;;;;;14.50;39.98;99934.94;5347493;23;20082;-96
2024/02/21 13:19:18;;;;;;;10.40;5.25;;;;;;;14.53;40.73;99939.03;4952214;28;20058;-95
2024/02/21 13:22:11;;;;;;;9.65;6.13;;;;;;;14.49;39.73;99941.47;4942969;28;20015;-96
2024/02/21 13:42:56;;;;;;;10.27;6.68;;;;;;;14.24;42.27;99934.31;4958596;28;20051;-96
2024/02/21 13:45:24;;;;;;;14.73;8.40;;;;;;;14.22;43.01;99920.22;4932057;28;20027;-95
2024/02/21 13:47:50;;;;;;;12.93;8.30;;;;;;;14.25;43.33;99905.31;4904042;29;20031;-92
2024/02/21 13:50:15;;;;;;;54.20;33.25;;;;;;;14.26;44.25;99899.63;4914993;29;20027;-96
2024/02/21 13:52:44;;;;;;;26.13;11.52;;;;;;;14.14;44.38;99902.66;4944200;29;20041;-96
2024/02/21 13:55:10;;;;;;;15.15;8.57;;;;;;;14.06;44.36;99911.38;4940527;29;20047;-93
2024/02/21 13:57:39;;;;;;;12.90;8.93;;;;;;;14.12;44.62;99909.44;4921236;29;20043;-96
2024/02/21 14:00:10;;;;;;;71.10;40.88;;;;;;;14.11;44.63;99921.34;4905567;29;20442;-94
2024/02/21 14:12:07;;;;;;;12.23;8.65;;;;;;;13.79;44.82;99916.34;4981813;28;20049;-96
2024/02/21 14:14:37;;;;;;;14.13;8.02;;;;;;;13.73;44.66;99902.03;4933507;28;20090;-95
2024/02/21 14:17:03;;;;;;;14.80;8.52;;;;;;;13.61;45.24;99907.75;4942052;28;20049;-92
2024/02/21 14:19:34;;;;;;;15.77;8.52;;;;;;;13.59;45.09;99892.88;4928698;28;20033;-94
2024/02/21 14:22:00;;;;;;;14.43;9.02;;;;;;;13.60;45.21;99894.50;4939639;28;20062;-95
2024/02/21 14:24:27;;;;;;;15.15;9.38;;;;;;;13.58;45.57;99883.94;4929616;28;20449;-92
2024/02/21 14:26:53;;;;;;;14.40;9.68;;;;;;;13.53;46.32;99886.69;4944370;28;20031;-94
2024/02/21 14:29:18;;;;;;;20.92;9.73;;;;;;;13.52;46.33;99882.34;4940126;28;20049;-93
2024/02/21 14:31:44;;;;;;;16.13;9.60;;;;;;;13.52;46.15;99888.56;4929682;28;20434;-94
2024/02/21 14:34:10;;;;;;;19.48;9.85;;;;;;;13.67;46.22;99903.13;4926598;28;20035;-94
2024/02/21 14:36:36;;;;;;;20.70;10.02;;;;;;;13.49;46.58;99880.22;4923403;29;20035;-94
2024/02/21 14:39:04;;;;;;;14.15;8.93;;;;;;;13.55;46.45;99900.75;4909418;29;20042;-94
2024/02/21 14:41:30;;;;;;;20.58;8.13;;;;;;;13.44;46.29;99889.13;4908350;29;20027;-93
2024/02/21 14:43:59;;;;;;;18.10;9.18;;;;;;;13.45;45.99;99885.34;4924023;29;20035;-93
2024/02/21 14:46:25;;;;;;;18.02;8.85;;;;;;;13.36;46.39;99876.16;4908698;29;20031;-94
2024/02/21 14:48:53;;;;;;;19.20;8.48;;;;;;;13.31;46.83;99887.81;4907598;29;20043;-95
2024/02/21 14:51:19;;;;;;;10.40;7.82;;;;;;;13.33;46.40;99893.75;4921974;28;20054;-95
2024/02/21 14:53:52;;;;;;;15.38;8.68;;;;;;;13.24;46.33;99892.66;4947345;28;20108;-95
2024/02/21 14:56:18;;;;;;;11.98;8.07;;;;;;;13.23;46.87;99888.31;4930116;28;20026;-93
2024/02/21 14:58:43;;;;;;;12.20;8.45;;;;;;;13.22;46.77;99891.31;4928352;28;20034;-93
2024/02/21 15:01:09;;;;;;;12.70;8.30;;;;;;;13.29;46.97;99908.09;4926753;28;20108;-93
2024/02/21 15:03:39;;;;;;;14.88;9.60;;;;;;;13.16;46.93;99890.53;4928999;28;20531;-93
2024/02/21 15:06:08;;;;;;;27.40;9.38;;;;;;;13.03;47.72;99888.34;4930434;28;20031;-94
2024/02/21 15:08:34;;;;;;;17.63;9.68;;;;;;;13.07;47.35;99902.94;5076807;23;20059;-91
2024/02/21 15:11:23;;;;;;;17.25;9.35;;;;;;;13.04;47.64;99896.19;4944595;28;20031;-96
2024/02/21 15:13:56;;;;;;;15.35;8.80;;;;;;;13.06;47.65;99902.16;4926270;29;20077;-93
2024/02/21 15:16:28;;;;;;;14.38;9.25;;;;;;;13.00;47.41;99910.53;4910067;29;20110;-94
2024/02/21 15:18:54;;;;;;;12.57;8.60;;;;;;;13.04;47.62;99908.91;4912343;29;20035;-96
2024/02/21 15:21:50;;;;;;;18.05;10.52;;;;;;;13.01;47.27;99898.63;4910946;29;20042;-96
2024/02/21 15:24:16;;;;;;;58.47;31.92;;;;;;;12.98;48.15;99897.28;4931343;29;20043;-94
2024/02/21 15:26:53;;;;;;;27.98;12.65;;;;;;;12.87;47.99;99901.88;4948980;29;20031;-96
2024/02/21 15:29:40;;;;;;;24.80;13.10;;;;;;;12.88;48.15;99905.41;4913150;29;20044;-96
2024/02/21 15:32:26;;;;;;;22.52;12.02;;;;;;;12.78;48.48;99900.00;4913775;29;20071;-96
2024/02/21 15:44:07;;;;;;;24.70;10.38;;;;;;;12.59;49.12;99889.72;5027884;23;20062;-96
2024/02/21 15:47:18;;;;;;;21.52;10.02;;;;;;;12.31;50.41;99889.13;4880581;29;20480;-96
2024/02/21 15:50:07;;;;;;;13.63;9.07;;;;;;;12.37;49.51;99894.53;4894876;29;20050;-96
2024/02/21 15:55:28;;;;;;;9.90;7.63;;;;;;;12.13;51.52;99898.53;5100586;23;20055;-96
2024/02/21 15:58:02;;;;;;;9.02;6.70;;;;;;;12.08;51.59;99903.13;4936806;29;20414;-95
2024/02/21 16:00:37;;;;;;;10.30;7.88;;;;;;;12.02;51.00;99898.78;4912483;29;20023;-96
2024/02/21 17:44:41;;;;;;;20.20;13.13;;;;;;;10.27;65.42;99988.22;4997258;28;20045;-96
2024/02/21 17:47:33;;;;;;;21.08;14.10;;;;;;;10.27;65.72;99986.34;4951833;28;20121;-96
2024/02/21 17:49:59;;;;;;;28.95;16.70;;;;;;;10.29;65.97;99999.53;4952332;28;20042;-96
2024/02/21 17:52:34;;;;;;;31.80;18.92;;;;;;;10.39;65.73;99999.69;4971697;28;20035;-96
2024/02/21 18:20:55;;;;;;;9.90;6.32;;;;;;;9.84;63.73;100003.28;5171548;23;20113;-96
2024/02/21 18:24:19;;;;;;;;;;;;;;;;;;;;;
2024/02/21 18:27:24;;;;;;;8.52;5.80;;;;;;;9.90;62.43;100013.06;4966310;29;20107;-96
2024/02/21 18:30:12;;;;;;;10.93;6.53;;;;;;;9.88;63.66;100018.66;4912388;29;20066;-96
2024/02/21 18:36:38;;;;;;;;;;;;;;;;;;;;;
2024/02/21 19:16:14;;;;;;;;;;;;;;;;;;;;;
2024/02/21 19:19:03;;;;;;;;;;;;;;;;;;;;;
2024/02/21 19:32:14;;;;;;;11.63;7.00;;;;;;;8.45;73.73;100056.53;4982450;28;20055;-96
2024/02/21 19:35:21;;;;;;;;;;;;;;;;;;;;;
2024/02/21 20:10:08;;;;;;;11.82;7.15;;;;;;;8.63;73.79;100052.84;5255858;23;20074;-96
2024/02/21 20:12:37;;;;;;;16.65;9.15;;;;;;;8.61;72.90;100077.28;4971903;28;20488;-96
2024/02/21 20:15:06;;;;;;;19.63;10.23;;;;;;;8.66;73.19;100074.66;4972797;28;20017;-96